sensor_id;sensor_type;location;lat;lon;timestamp;temperature;humidity
59128;DHT22;44912;52.754;5.994;2023-02-15T00:00:10;2.00;99.90
59128;DHT22;44912;52.754;5.994;2023-02-15T00:02:36;2.00;99.90
59128;DHT22;44912;52.754;5.994;2023-02-15T00:05:02;2.00;99.90
59128;DHT22;44912;52.754;5.994;2023-02-15T00:07:27;2.00;99.90
59128;DHT22;44912;52.754;5.994;2023-02-15T00:09:53;1.90;99.90
59128;DHT22;44912;52.754;5.994;2023-02-15T00:12:18;1.80;99.90
59128;DHT22;44912;52.754;5.994;2023-02-15T00:14:44;1.70;99.90
59128;DHT22;44912;52.754;5.994;2023-02-15T00:17:10;1.80;99.90
59128;DHT22;44912;52.754;5.994;2023-02-15T00:19:36;1.80;99.90
59128;DHT22;44912;52.754;5.994;2023-02-15T00:22:01;1.90;99.90
59128;DHT22;44912;52.754;5.994;2023-02-15T00:24:27;2.00;99.90
59128;DHT22;44912;52.754;5.994;2023-02-15T00:26:53;2.10;99.90
59128;DHT22;44912;52.754;5.994;2023-02-15T00:29:19;2.10;99.90
59128;DHT22;44912;52.754;5.994;2023-02-15T00:31:45;2.10;99.90
59128;DHT22;44912;52.754;5.994;2023-02-15T00:34:20;2.10;99.90
59128;DHT22;44912;52.754;5.994;2023-02-15T00:36:45;2.10;99.90
59128;DHT22;44912;52.754;5.994;2023-02-15T00:39:12;2.10;99.90
59128;DHT22;44912;52.754;5.994;2023-02-15T00:41:38;2.00;99.90
59128;DHT22;44912;52.754;5.994;2023-02-15T00:44:04;1.90;99.90
59128;DHT22;44912;52.754;5.994;2023-02-15T00:46:30;1.80;99.90
59128;DHT22;44912;52.754;5.994;2023-02-15T00:48:56;1.80;99.90
59128;DHT22;44912;52.754;5.994;2023-02-15T00:51:21;1.80;99.90
59128;DHT22;44912;52.754;5.994;2023-02-15T00:53:47;1.80;99.90
59128;DHT22;44912;52.754;5.994;2023-02-15T00:56:13;1.70;99.90
59128;DHT22;44912;52.754;5.994;2023-02-15T00:58:39;1.70;99.90
59128;DHT22;44912;52.754;5.994;2023-02-15T01:01:09;1.70;99.90
59128;DHT22;44912;52.754;5.994;2023-02-15T01:03:35;1.80;99.90
59128;DHT22;44912;52.754;5.994;2023-02-15T01:06:02;1.80;99.90
59128;DHT22;44912;52.754;5.994;2023-02-15T01:08:28;1.70;99.90
59128;DHT22;44912;52.754;5.994;2023-02-15T01:10:54;1.60;99.90
59128;DHT22;44912;52.754;5.994;2023-02-15T01:13:20;1.60;99.90
59128;DHT22;44912;52.754;5.994;2023-02-15T01:15:46;1.50;99.90
59128;DHT22;44912;52.754;5.994;2023-02-15T01:18:17;1.50;99.90
59128;DHT22;44912;52.754;5.994;2023-02-15T01:20:43;1.40;99.90
59128;DHT22;44912;52.754;5.994;2023-02-15T01:23:08;1.40;99.90
59128;DHT22;44912;52.754;5.994;2023-02-15T01:25:35;1.40;99.90
59128;DHT22;44912;52.754;5.994;2023-02-15T01:28:01;1.30;99.90
59128;DHT22;44912;52.754;5.994;2023-02-15T01:30:27;1.20;99.90
59128;DHT22;44912;52.754;5.994;2023-02-15T01:32:53;1.20;99.90
59128;DHT22;44912;52.754;5.994;2023-02-15T01:35:18;1.20;99.90
59128;DHT22;44912;52.754;5.994;2023-02-15T01:37:44;1.20;99.90
59128;DHT22;44912;52.754;5.994;2023-02-15T01:40:13;1.20;99.90
59128;DHT22;44912;52.754;5.994;2023-02-15T01:42:39;1.20;99.90
59128;DHT22;44912;52.754;5.994;2023-02-15T01:45:28;1.20;99.90
59128;DHT22;44912;52.754;5.994;2023-02-15T01:48:06;1.20;99.90
59128;DHT22;44912;52.754;5.994;2023-02-15T01:50:40;1.20;99.90
59128;DHT22;44912;52.754;5.994;2023-02-15T01:53:24;1.20;99.90
59128;DHT22;44912;52.754;5.994;2023-02-15T01:55:55;1.20;99.90
59128;DHT22;44912;52.754;5.994;2023-02-15T01:58:23;1.20;99.90
59128;DHT22;44912;52.754;5.994;2023-02-15T02:00:49;1.20;99.90
59128;DHT22;44912;52.754;5.994;2023-02-15T02:03:15;1.20;99.90
59128;DHT22;44912;52.754;5.994;2023-02-15T02:05:40;1.20;99.90
59128;DHT22;44912;52.754;5.994;2023-02-15T02:08:07;1.20;99.90
59128;DHT22;44912;52.754;5.994;2023-02-15T02:10:34;1.20;99.90
59128;DHT22;44912;52.754;5.994;2023-02-15T02:13:03;1.20;99.90
59128;DHT22;44912;52.754;5.994;2023-02-15T02:15:57;1.20;99.90
59128;DHT22;44912;52.754;5.994;2023-02-15T02:18:58;1.20;99.90
59128;DHT22;44912;52.754;5.994;2023-02-15T02:24:26;1.10;99.90
59128;DHT22;44912;52.754;5.994;2023-02-15T02:27:22;1.00;99.90
59128;DHT22;44912;52.754;5.994;2023-02-15T02:35:51;0.90;99.90
59128;DHT22;44912;52.754;5.994;2023-02-15T02:38:42;0.90;99.90
59128;DHT22;44912;52.754;5.994;2023-02-15T02:41:32;0.90;99.90
59128;DHT22;44912;52.754;5.994;2023-02-15T02:44:16;0.90;99.90
59128;DHT22;44912;52.754;5.994;2023-02-15T02:46:52;0.90;99.90
59128;DHT22;44912;52.754;5.994;2023-02-15T02:49:30;0.90;99.90
59128;DHT22;44912;52.754;5.994;2023-02-15T02:54:48;1.00;99.90
59128;DHT22;44912;52.754;5.994;2023-02-15T02:57:14;1.00;99.90
59128;DHT22;44912;52.754;5.994;2023-02-15T02:59:42;1.00;99.90
59128;DHT22;44912;52.754;5.994;2023-02-15T03:02:25;1.00;99.90
59128;DHT22;44912;52.754;5.994;2023-02-15T03:05:01;1.00;99.90
59128;DHT22;44912;52.754;5.994;2023-02-15T03:07:30;1.00;99.90
59128;DHT22;44912;52.754;5.994;2023-02-15T03:10:01;0.90;99.90
59128;DHT22;44912;52.754;5.994;2023-02-15T03:12:32;0.90;99.90
59128;DHT22;44912;52.754;5.994;2023-02-15T03:15:19;0.90;99.90
59128;DHT22;44912;52.754;5.994;2023-02-15T03:17:48;0.90;99.90
59128;DHT22;44912;52.754;5.994;2023-02-15T03:20:28;0.90;99.90
59128;DHT22;44912;52.754;5.994;2023-02-15T03:22:58;0.90;99.90
59128;DHT22;44912;52.754;5.994;2023-02-15T03:28:05;0.90;99.90
59128;DHT22;44912;52.754;5.994;2023-02-15T03:30:32;0.90;99.90
59128;DHT22;44912;52.754;5.994;2023-02-15T03:33:00;0.80;99.90
59128;DHT22;44912;52.754;5.994;2023-02-15T03:36:14;0.80;99.90
59128;DHT22;44912;52.754;5.994;2023-02-15T03:38:25;0.80;99.90
59128;DHT22;44912;52.754;5.994;2023-02-15T03:40:53;0.80;99.90
59128;DHT22;44912;52.754;5.994;2023-02-15T03:44:11;0.90;99.90
59128;DHT22;44912;52.754;5.994;2023-02-15T03:47:12;0.90;99.90
59128;DHT22;44912;52.754;5.994;2023-02-15T03:49:51;0.90;99.90
59128;DHT22;44912;52.754;5.994;2023-02-15T03:52:19;0.90;99.90
59128;DHT22;44912;52.754;5.994;2023-02-15T03:54:45;0.90;99.90
59128;DHT22;44912;52.754;5.994;2023-02-15T03:57:17;0.80;99.90
59128;DHT22;44912;52.754;5.994;2023-02-15T04:00:12;0.70;99.90
59128;DHT22;44912;52.754;5.994;2023-02-15T04:05:46;0.60;99.90
59128;DHT22;44912;52.754;5.994;2023-02-15T04:08:12;0.50;99.90
59128;DHT22;44912;52.754;5.994;2023-02-15T04:10:38;0.50;99.90
59128;DHT22;44912;52.754;5.994;2023-02-15T04:13:22;0.50;99.90
59128;DHT22;44912;52.754;5.994;2023-02-15T04:15:48;0.50;99.90
59128;DHT22;44912;52.754;5.994;2023-02-15T04:18:40;0.60;99.90
59128;DHT22;44912;52.754;5.994;2023-02-15T04:21:26;0.60;99.90
59128;DHT22;44912;52.754;5.994;2023-02-15T04:24:11;0.70;99.90
59128;DHT22;44912;52.754;5.994;2023-02-15T04:26:56;0.70;99.90
59128;DHT22;44912;52.754;5.994;2023-02-15T04:29:23;0.70;99.90
59128;DHT22;44912;52.754;5.994;2023-02-15T04:31:50;0.70;99.90
59128;DHT22;44912;52.754;5.994;2023-02-15T04:34:16;0.70;99.90
59128;DHT22;44912;52.754;5.994;2023-02-15T04:36:42;0.70;99.90
59128;DHT22;44912;52.754;5.994;2023-02-15T04:39:08;0.60;99.90
59128;DHT22;44912;52.754;5.994;2023-02-15T04:41:34;0.60;99.90
59128;DHT22;44912;52.754;5.994;2023-02-15T04:44:00;0.60;99.90
59128;DHT22;44912;52.754;5.994;2023-02-15T04:46:27;0.60;99.90
59128;DHT22;44912;52.754;5.994;2023-02-15T04:48:53;0.60;99.90
59128;DHT22;44912;52.754;5.994;2023-02-15T04:51:19;0.60;99.90
59128;DHT22;44912;52.754;5.994;2023-02-15T04:53:44;0.60;99.90
59128;DHT22;44912;52.754;5.994;2023-02-15T04:56:10;0.70;99.90
59128;DHT22;44912;52.754;5.994;2023-02-15T04:58:36;0.70;99.90
59128;DHT22;44912;52.754;5.994;2023-02-15T05:01:02;0.70;99.90
59128;DHT22;44912;52.754;5.994;2023-02-15T05:03:28;0.70;99.90
59128;DHT22;44912;52.754;5.994;2023-02-15T05:05:53;0.70;99.90
59128;DHT22;44912;52.754;5.994;2023-02-15T05:08:19;0.70;99.90
59128;DHT22;44912;52.754;5.994;2023-02-15T05:10:44;0.80;99.90
59128;DHT22;44912;52.754;5.994;2023-02-15T05:13:12;0.70;99.90
59128;DHT22;44912;52.754;5.994;2023-02-15T05:15:38;0.70;99.90
59128;DHT22;44912;52.754;5.994;2023-02-15T05:18:03;0.80;99.90
59128;DHT22;44912;52.754;5.994;2023-02-15T05:20:29;0.80;99.90
59128;DHT22;44912;52.754;5.994;2023-02-15T05:22:54;0.80;99.90
59128;DHT22;44912;52.754;5.994;2023-02-15T05:25:20;0.80;99.90
59128;DHT22;44912;52.754;5.994;2023-02-15T05:28:04;0.80;99.90
59128;DHT22;44912;52.754;5.994;2023-02-15T05:30:46;0.80;99.90
59128;DHT22;44912;52.754;5.994;2023-02-15T05:33:11;0.80;99.90
59128;DHT22;44912;52.754;5.994;2023-02-15T05:35:37;0.80;99.90
59128;DHT22;44912;52.754;5.994;2023-02-15T05:38:02;0.80;99.90
59128;DHT22;44912;52.754;5.994;2023-02-15T05:40:28;0.80;99.90
59128;DHT22;44912;52.754;5.994;2023-02-15T05:42:54;0.80;99.90
59128;DHT22;44912;52.754;5.994;2023-02-15T05:45:20;0.80;99.90
59128;DHT22;44912;52.754;5.994;2023-02-15T05:47:46;0.80;99.90
59128;DHT22;44912;52.754;5.994;2023-02-15T05:50:11;0.80;99.90
59128;DHT22;44912;52.754;5.994;2023-02-15T05:52:37;0.80;99.90
59128;DHT22;44912;52.754;5.994;2023-02-15T05:55:03;0.80;99.90
59128;DHT22;44912;52.754;5.994;2023-02-15T05:57:30;0.80;99.90
59128;DHT22;44912;52.754;5.994;2023-02-15T05:59:55;0.70;99.90
59128;DHT22;44912;52.754;5.994;2023-02-15T06:02:21;0.70;99.90
59128;DHT22;44912;52.754;5.994;2023-02-15T06:04:46;0.70;99.90
59128;DHT22;44912;52.754;5.994;2023-02-15T06:07:12;0.70;99.90
59128;DHT22;44912;52.754;5.994;2023-02-15T06:09:37;0.70;99.90
59128;DHT22;44912;52.754;5.994;2023-02-15T06:12:03;0.70;99.90
59128;DHT22;44912;52.754;5.994;2023-02-15T06:14:28;0.60;99.90
59128;DHT22;44912;52.754;5.994;2023-02-15T06:16:54;0.60;99.90
59128;DHT22;44912;52.754;5.994;2023-02-15T06:19:19;0.60;99.90
59128;DHT22;44912;52.754;5.994;2023-02-15T06:21:46;0.60;99.90
59128;DHT22;44912;52.754;5.994;2023-02-15T06:24:12;0.60;99.90
59128;DHT22;44912;52.754;5.994;2023-02-15T06:26:37;0.50;99.90
59128;DHT22;44912;52.754;5.994;2023-02-15T06:29:03;0.50;99.90
59128;DHT22;44912;52.754;5.994;2023-02-15T06:31:28;0.50;99.90
59128;DHT22;44912;52.754;5.994;2023-02-15T06:33:54;0.60;99.90
59128;DHT22;44912;52.754;5.994;2023-02-15T06:36:29;0.60;99.90
59128;DHT22;44912;52.754;5.994;2023-02-15T06:38:55;0.60;99.90
59128;DHT22;44912;52.754;5.994;2023-02-15T06:41:21;0.60;99.90
59128;DHT22;44912;52.754;5.994;2023-02-15T06:43:47;0.50;99.90
59128;DHT22;44912;52.754;5.994;2023-02-15T06:46:12;0.60;99.90
59128;DHT22;44912;52.754;5.994;2023-02-15T06:48:38;0.60;99.90
59128;DHT22;44912;52.754;5.994;2023-02-15T06:51:03;0.70;99.90
59128;DHT22;44912;52.754;5.994;2023-02-15T06:53:29;0.70;99.90
59128;DHT22;44912;52.754;5.994;2023-02-15T06:56:06;0.80;99.90
59128;DHT22;44912;52.754;5.994;2023-02-15T06:58:40;0.90;99.90
59128;DHT22;44912;52.754;5.994;2023-02-15T07:01:07;1.00;99.90
59128;DHT22;44912;52.754;5.994;2023-02-15T07:03:33;1.00;99.90
59128;DHT22;44912;52.754;5.994;2023-02-15T07:06:01;1.00;99.90
59128;DHT22;44912;52.754;5.994;2023-02-15T07:08:27;1.00;99.90
59128;DHT22;44912;52.754;5.994;2023-02-15T07:10:54;1.00;99.90
59128;DHT22;44912;52.754;5.994;2023-02-15T07:13:40;1.10;99.90
59128;DHT22;44912;52.754;5.994;2023-02-15T07:16:08;1.10;99.90
59128;DHT22;44912;52.754;5.994;2023-02-15T07:18:33;1.20;99.90
59128;DHT22;44912;52.754;5.994;2023-02-15T07:20:59;1.20;99.90
59128;DHT22;44912;52.754;5.994;2023-02-15T07:23:24;1.20;99.90
59128;DHT22;44912;52.754;5.994;2023-02-15T07:25:57;1.30;99.90
59128;DHT22;44912;52.754;5.994;2023-02-15T07:28:22;1.30;99.90
59128;DHT22;44912;52.754;5.994;2023-02-15T07:30:48;1.40;99.90
59128;DHT22;44912;52.754;5.994;2023-02-15T07:33:13;1.40;99.90
59128;DHT22;44912;52.754;5.994;2023-02-15T07:36:00;1.40;99.90
59128;DHT22;44912;52.754;5.994;2023-02-15T07:38:30;1.50;99.90
59128;DHT22;44912;52.754;5.994;2023-02-15T07:41:00;1.50;99.90
59128;DHT22;44912;52.754;5.994;2023-02-15T07:43:26;1.60;99.90
59128;DHT22;44912;52.754;5.994;2023-02-15T07:45:52;1.70;99.90
59128;DHT22;44912;52.754;5.994;2023-02-15T07:48:17;1.70;99.90
59128;DHT22;44912;52.754;5.994;2023-02-15T07:50:43;1.80;99.90
59128;DHT22;44912;52.754;5.994;2023-02-15T07:53:09;1.90;99.90
59128;DHT22;44912;52.754;5.994;2023-02-15T07:55:34;1.90;99.90
59128;DHT22;44912;52.754;5.994;2023-02-15T07:58:00;2.00;99.90
59128;DHT22;44912;52.754;5.994;2023-02-15T08:00:26;2.10;99.90
59128;DHT22;44912;52.754;5.994;2023-02-15T08:02:53;2.20;99.90
59128;DHT22;44912;52.754;5.994;2023-02-15T08:05:39;2.30;99.90
59128;DHT22;44912;52.754;5.994;2023-02-15T08:08:05;2.40;99.90
59128;DHT22;44912;52.754;5.994;2023-02-15T08:10:31;2.40;99.90
59128;DHT22;44912;52.754;5.994;2023-02-15T08:13:15;2.50;99.90
59128;DHT22;44912;52.754;5.994;2023-02-15T08:15:48;2.60;99.90
59128;DHT22;44912;52.754;5.994;2023-02-15T08:18:14;2.70;99.90
59128;DHT22;44912;52.754;5.994;2023-02-15T08:20:39;2.70;99.90
59128;DHT22;44912;52.754;5.994;2023-02-15T08:23:05;2.80;99.90
59128;DHT22;44912;52.754;5.994;2023-02-15T08:25:30;2.90;99.90
59128;DHT22;44912;52.754;5.994;2023-02-15T08:27:56;2.90;99.90
59128;DHT22;44912;52.754;5.994;2023-02-15T08:30:21;3.00;99.90
59128;DHT22;44912;52.754;5.994;2023-02-15T08:32:47;3.10;99.90
59128;DHT22;44912;52.754;5.994;2023-02-15T08:35:13;3.20;99.90
59128;DHT22;44912;52.754;5.994;2023-02-15T08:37:39;3.30;99.90
59128;DHT22;44912;52.754;5.994;2023-02-15T08:40:05;3.40;99.90
59128;DHT22;44912;52.754;5.994;2023-02-15T08:42:33;3.50;99.90
59128;DHT22;44912;52.754;5.994;2023-02-15T08:44:58;3.60;99.90
59128;DHT22;44912;52.754;5.994;2023-02-15T08:47:24;3.70;99.90
59128;DHT22;44912;52.754;5.994;2023-02-15T08:49:50;3.70;99.90
59128;DHT22;44912;52.754;5.994;2023-02-15T08:52:16;3.80;99.90
59128;DHT22;44912;52.754;5.994;2023-02-15T08:54:42;3.90;99.90
59128;DHT22;44912;52.754;5.994;2023-02-15T08:57:08;4.00;99.90
59128;DHT22;44912;52.754;5.994;2023-02-15T08:59:33;4.10;99.90
59128;DHT22;44912;52.754;5.994;2023-02-15T09:01:59;4.20;99.90
59128;DHT22;44912;52.754;5.994;2023-02-15T09:04:26;4.30;99.90
59128;DHT22;44912;52.754;5.994;2023-02-15T09:06:51;4.30;99.90
59128;DHT22;44912;52.754;5.994;2023-02-15T09:09:18;4.40;99.90
59128;DHT22;44912;52.754;5.994;2023-02-15T09:11:46;4.60;99.90
59128;DHT22;44912;52.754;5.994;2023-02-15T09:14:17;4.70;99.90
59128;DHT22;44912;52.754;5.994;2023-02-15T09:16:46;4.80;99.90
59128;DHT22;44912;52.754;5.994;2023-02-15T09:19:14;5.00;99.90
59128;DHT22;44912;52.754;5.994;2023-02-15T09:21:40;5.10;99.90
59128;DHT22;44912;52.754;5.994;2023-02-15T09:24:08;5.10;99.90
59128;DHT22;44912;52.754;5.994;2023-02-15T09:26:36;5.10;99.90
59128;DHT22;44912;52.754;5.994;2023-02-15T09:29:03;5.20;99.90
59128;DHT22;44912;52.754;5.994;2023-02-15T09:31:41;5.30;99.90
59128;DHT22;44912;52.754;5.994;2023-02-15T09:34:09;5.30;99.90
59128;DHT22;44912;52.754;5.994;2023-02-15T09:36:37;5.40;99.90
59128;DHT22;44912;52.754;5.994;2023-02-15T09:39:23;5.40;99.90
59128;DHT22;44912;52.754;5.994;2023-02-15T09:53:01;6.00;99.90
59128;DHT22;44912;52.754;5.994;2023-02-15T09:55:34;6.20;99.90
59128;DHT22;44912;52.754;5.994;2023-02-15T09:58:20;6.30;99.90
59128;DHT22;44912;52.754;5.994;2023-02-15T10:01:10;6.40;99.90
59128;DHT22;44912;52.754;5.994;2023-02-15T10:04:05;6.50;99.90
59128;DHT22;44912;52.754;5.994;2023-02-15T10:15:12;6.80;99.90
59128;DHT22;44912;52.754;5.994;2023-02-15T10:23:22;7.10;99.90
59128;DHT22;44912;52.754;5.994;2023-02-15T10:28:49;7.40;99.90
59128;DHT22;44912;52.754;5.994;2023-02-15T10:31:34;7.60;99.90
59128;DHT22;44912;52.754;5.994;2023-02-15T10:34:14;7.70;99.90
59128;DHT22;44912;52.754;5.994;2023-02-15T10:37:04;7.80;99.90
59128;DHT22;44912;52.754;5.994;2023-02-15T10:45:36;8.30;99.90
59128;DHT22;44912;52.754;5.994;2023-02-15T10:51:00;8.50;99.90
59128;DHT22;44912;52.754;5.994;2023-02-15T10:54:02;8.70;99.90
59128;DHT22;44912;52.754;5.994;2023-02-15T10:56:32;8.80;99.90
59128;DHT22;44912;52.754;5.994;2023-02-15T11:04:51;9.10;99.90
59128;DHT22;44912;52.754;5.994;2023-02-15T11:07:28;9.20;99.90
59128;DHT22;44912;52.754;5.994;2023-02-15T11:12:45;9.30;99.90
59128;DHT22;44912;52.754;5.994;2023-02-15T11:17:43;9.50;99.90
59128;DHT22;44912;52.754;5.994;2023-02-15T11:20:33;9.50;99.90
59128;DHT22;44912;52.754;5.994;2023-02-15T11:23:01;9.60;99.90
59128;DHT22;44912;52.754;5.994;2023-02-15T11:25:32;9.80;99.90
59128;DHT22;44912;52.754;5.994;2023-02-15T11:28:00;9.80;99.90
59128;DHT22;44912;52.754;5.994;2023-02-15T11:30:33;9.90;99.90
59128;DHT22;44912;52.754;5.994;2023-02-15T11:33:04;10.00;99.90
59128;DHT22;44912;52.754;5.994;2023-02-15T11:35:37;10.00;99.90
59128;DHT22;44912;52.754;5.994;2023-02-15T11:38:21;10.00;99.90
59128;DHT22;44912;52.754;5.994;2023-02-15T11:46:10;10.00;99.90
59128;DHT22;44912;52.754;5.994;2023-02-15T11:48:36;10.00;99.90
59128;DHT22;44912;52.754;5.994;2023-02-15T11:51:02;10.00;99.90
59128;DHT22;44912;52.754;5.994;2023-02-15T11:53:36;10.10;99.90
59128;DHT22;44912;52.754;5.994;2023-02-15T11:56:01;10.20;99.90
59128;DHT22;44912;52.754;5.994;2023-02-15T11:58:43;10.20;99.90
59128;DHT22;44912;52.754;5.994;2023-02-15T12:01:32;10.20;99.90
59128;DHT22;44912;52.754;5.994;2023-02-15T12:09:55;10.40;99.90
59128;DHT22;44912;52.754;5.994;2023-02-15T12:14:55;10.40;99.90
59128;DHT22;44912;52.754;5.994;2023-02-15T12:17:24;10.50;99.90
59128;DHT22;44912;52.754;5.994;2023-02-15T12:19:51;10.60;99.90
59128;DHT22;44912;52.754;5.994;2023-02-15T12:22:22;10.60;99.90
59128;DHT22;44912;52.754;5.994;2023-02-15T12:24:51;10.60;99.90
59128;DHT22;44912;52.754;5.994;2023-02-15T12:27:29;10.60;99.90
59128;DHT22;44912;52.754;5.994;2023-02-15T12:29:56;10.60;99.90
59128;DHT22;44912;52.754;5.994;2023-02-15T12:32:48;10.60;99.90
59128;DHT22;44912;52.754;5.994;2023-02-15T12:35:21;10.70;99.90
59128;DHT22;44912;52.754;5.994;2023-02-15T12:37:54;10.70;99.90
59128;DHT22;44912;52.754;5.994;2023-02-15T12:40:26;10.70;99.90
59128;DHT22;44912;52.754;5.994;2023-02-15T12:42:53;10.80;99.90
59128;DHT22;44912;52.754;5.994;2023-02-15T12:50:34;10.90;99.90
59128;DHT22;44912;52.754;5.994;2023-02-15T12:53:20;10.90;99.90
59128;DHT22;44912;52.754;5.994;2023-02-15T12:55:54;11.00;99.90
59128;DHT22;44912;52.754;5.994;2023-02-15T12:58:31;11.00;99.90
59128;DHT22;44912;52.754;5.994;2023-02-15T13:03:35;11.00;99.90
59128;DHT22;44912;52.754;5.994;2023-02-15T13:06:02;11.00;99.90
59128;DHT22;44912;52.754;5.994;2023-02-15T13:08:35;11.00;99.90
59128;DHT22;44912;52.754;5.994;2023-02-15T13:11:11;11.00;99.90
59128;DHT22;44912;52.754;5.994;2023-02-15T13:13:56;11.00;99.90
59128;DHT22;44912;52.754;5.994;2023-02-15T13:16:32;11.10;99.90
59128;DHT22;44912;52.754;5.994;2023-02-15T13:19:04;11.10;99.90
59128;DHT22;44912;52.754;5.994;2023-02-15T13:21:35;11.10;99.90
59128;DHT22;44912;52.754;5.994;2023-02-15T13:24:15;11.20;99.90
59128;DHT22;44912;52.754;5.994;2023-02-15T13:26:43;11.20;99.90
59128;DHT22;44912;52.754;5.994;2023-02-15T13:29:25;11.30;99.90
59128;DHT22;44912;52.754;5.994;2023-02-15T13:31:52;11.40;99.90
59128;DHT22;44912;52.754;5.994;2023-02-15T13:34:38;11.40;99.90
59128;DHT22;44912;52.754;5.994;2023-02-15T13:37:10;11.50;99.90
59128;DHT22;44912;52.754;5.994;2023-02-15T13:39:44;11.50;99.90
59128;DHT22;44912;52.754;5.994;2023-02-15T13:42:30;11.60;99.90
59128;DHT22;44912;52.754;5.994;2023-02-15T13:50:52;11.70;99.90
59128;DHT22;44912;52.754;5.994;2023-02-15T13:56:33;11.70;99.90
59128;DHT22;44912;52.754;5.994;2023-02-15T14:02:04;11.80;99.90
59128;DHT22;44912;52.754;5.994;2023-02-15T14:07:53;11.70;99.90
59128;DHT22;44912;52.754;5.994;2023-02-15T14:10:44;11.70;99.90
59128;DHT22;44912;52.754;5.994;2023-02-15T14:18:46;11.60;99.90
59128;DHT22;44912;52.754;5.994;2023-02-15T14:21:32;11.60;99.90
59128;DHT22;44912;52.754;5.994;2023-02-15T14:24:30;11.60;99.90
59128;DHT22;44912;52.754;5.994;2023-02-15T14:30:09;11.60;99.90
59128;DHT22;44912;52.754;5.994;2023-02-15T14:32:57;11.60;99.90
59128;DHT22;44912;52.754;5.994;2023-02-15T14:35:28;11.70;99.90
59128;DHT22;44912;52.754;5.994;2023-02-15T14:44:01;11.80;99.90
59128;DHT22;44912;52.754;5.994;2023-02-15T14:47:05;11.80;99.90
59128;DHT22;44912;52.754;5.994;2023-02-15T14:49:39;11.70;99.90
59128;DHT22;44912;52.754;5.994;2023-02-15T14:52:09;11.80;99.90
59128;DHT22;44912;52.754;5.994;2023-02-15T14:59:55;11.70;99.90
59128;DHT22;44912;52.754;5.994;2023-02-15T15:02:29;11.80;99.90
59128;DHT22;44912;52.754;5.994;2023-02-15T15:05:02;11.70;99.90
59128;DHT22;44912;52.754;5.994;2023-02-15T15:07:50;11.70;99.90
59128;DHT22;44912;52.754;5.994;2023-02-15T15:15:33;11.70;99.90
59128;DHT22;44912;52.754;5.994;2023-02-15T15:18:10;11.70;99.90
59128;DHT22;44912;52.754;5.994;2023-02-15T15:20:55;11.70;99.90
59128;DHT22;44912;52.754;5.994;2023-02-15T15:23:44;11.70;99.90
59128;DHT22;44912;52.754;5.994;2023-02-15T15:26:30;11.60;99.90
59128;DHT22;44912;52.754;5.994;2023-02-15T15:29:00;11.60;99.90
59128;DHT22;44912;52.754;5.994;2023-02-15T15:31:43;11.50;99.90
59128;DHT22;44912;52.754;5.994;2023-02-15T15:34:16;11.50;99.90
59128;DHT22;44912;52.754;5.994;2023-02-15T15:40:13;11.40;99.90
59128;DHT22;44912;52.754;5.994;2023-02-15T15:46:05;11.30;99.90
59128;DHT22;44912;52.754;5.994;2023-02-15T15:48:38;11.20;99.90
59128;DHT22;44912;52.754;5.994;2023-02-15T15:51:18;11.20;99.90
59128;DHT22;44912;52.754;5.994;2023-02-15T15:53:47;11.10;99.90
59128;DHT22;44912;52.754;5.994;2023-02-15T15:56:19;11.10;99.90
59128;DHT22;44912;52.754;5.994;2023-02-15T15:58:58;11.00;99.90
59128;DHT22;44912;52.754;5.994;2023-02-15T16:01:27;11.00;99.90
59128;DHT22;44912;52.754;5.994;2023-02-15T16:03:56;10.90;99.90
59128;DHT22;44912;52.754;5.994;2023-02-15T16:06:36;10.80;99.90
59128;DHT22;44912;52.754;5.994;2023-02-15T16:09:23;10.80;99.90
59128;DHT22;44912;52.754;5.994;2023-02-15T16:11:52;10.80;99.90
59128;DHT22;44912;52.754;5.994;2023-02-15T16:16:53;10.60;99.90
59128;DHT22;44912;52.754;5.994;2023-02-15T16:19:29;10.60;99.90
59128;DHT22;44912;52.754;5.994;2023-02-15T16:21:59;10.50;99.90
59128;DHT22;44912;52.754;5.994;2023-02-15T16:25:02;10.50;99.90
59128;DHT22;44912;52.754;5.994;2023-02-15T16:27:41;10.40;99.90
59128;DHT22;44912;52.754;5.994;2023-02-15T16:30:27;10.30;99.90
59128;DHT22;44912;52.754;5.994;2023-02-15T16:33:16;10.30;99.90
59128;DHT22;44912;52.754;5.994;2023-02-15T16:35:58;10.20;99.90
59128;DHT22;44912;52.754;5.994;2023-02-15T16:41:15;10.00;99.90
59128;DHT22;44912;52.754;5.994;2023-02-15T16:43:45;9.90;99.90
59128;DHT22;44912;52.754;5.994;2023-02-15T16:46:20;9.80;99.90
59128;DHT22;44912;52.754;5.994;2023-02-15T16:48:51;9.60;99.90
59128;DHT22;44912;52.754;5.994;2023-02-15T16:51:25;9.50;99.90
59128;DHT22;44912;52.754;5.994;2023-02-15T16:53:54;9.50;99.90
59128;DHT22;44912;52.754;5.994;2023-02-15T16:56:24;9.40;99.90
59128;DHT22;44912;52.754;5.994;2023-02-15T16:58:54;9.20;99.90
59128;DHT22;44912;52.754;5.994;2023-02-15T17:01:21;9.20;99.90
59128;DHT22;44912;52.754;5.994;2023-02-15T17:03:50;9.10;99.90
59128;DHT22;44912;52.754;5.994;2023-02-15T17:06:23;9.10;99.90
59128;DHT22;44912;52.754;5.994;2023-02-15T17:08:48;9.10;99.90
59128;DHT22;44912;52.754;5.994;2023-02-15T17:11:22;9.10;99.90
59128;DHT22;44912;52.754;5.994;2023-02-15T17:16:32;9.10;99.90
59128;DHT22;44912;52.754;5.994;2023-02-15T17:19:08;9.10;99.90
59128;DHT22;44912;52.754;5.994;2023-02-15T17:21:41;9.10;99.90
59128;DHT22;44912;52.754;5.994;2023-02-15T17:24:16;9.10;99.90
59128;DHT22;44912;52.754;5.994;2023-02-15T17:26:43;9.00;99.90
59128;DHT22;44912;52.754;5.994;2023-02-15T17:29:40;8.90;99.90
59128;DHT22;44912;52.754;5.994;2023-02-15T17:32:16;8.60;99.90
59128;DHT22;44912;52.754;5.994;2023-02-15T17:35:33;8.30;99.90
59128;DHT22;44912;52.754;5.994;2023-02-15T17:38:17;8.30;99.90
59128;DHT22;44912;52.754;5.994;2023-02-15T17:40:43;8.30;99.90
59128;DHT22;44912;52.754;5.994;2023-02-15T17:43:09;8.30;99.90
59128;DHT22;44912;52.754;5.994;2023-02-15T17:45:44;8.30;99.90
59128;DHT22;44912;52.754;5.994;2023-02-15T17:48:22;8.30;99.90
59128;DHT22;44912;52.754;5.994;2023-02-15T17:50:49;8.20;99.90
59128;DHT22;44912;52.754;5.994;2023-02-15T17:53:17;8.20;99.90
59128;DHT22;44912;52.754;5.994;2023-02-15T17:55:43;8.20;99.90
59128;DHT22;44912;52.754;5.994;2023-02-15T17:58:12;8.20;99.90
59128;DHT22;44912;52.754;5.994;2023-02-15T18:00:41;8.20;99.90
59128;DHT22;44912;52.754;5.994;2023-02-15T18:03:34;8.10;99.90
59128;DHT22;44912;52.754;5.994;2023-02-15T18:06:21;8.10;99.90
59128;DHT22;44912;52.754;5.994;2023-02-15T18:09:05;8.10;99.90
59128;DHT22;44912;52.754;5.994;2023-02-15T18:11:49;8.00;99.90
59128;DHT22;44912;52.754;5.994;2023-02-15T18:14:15;8.00;99.90
59128;DHT22;44912;52.754;5.994;2023-02-15T18:16:42;8.00;99.90
59128;DHT22;44912;52.754;5.994;2023-02-15T18:19:23;7.90;99.90
59128;DHT22;44912;52.754;5.994;2023-02-15T18:21:50;7.90;99.90
59128;DHT22;44912;52.754;5.994;2023-02-15T18:24:19;7.80;99.90
59128;DHT22;44912;52.754;5.994;2023-02-15T18:26:46;7.80;99.90
59128;DHT22;44912;52.754;5.994;2023-02-15T18:29:11;7.80;99.90
59128;DHT22;44912;52.754;5.994;2023-02-15T18:31:37;7.70;99.90
59128;DHT22;44912;52.754;5.994;2023-02-15T18:34:04;7.70;99.90